首页
METAR-TAF:

METAR-TAF

机场 :

諾福克國際機場

諾福克, 弗吉尼亚州, 美国

纬度: 36-54-13N, 经度: 076-11-31W, 海拔: 8米

当前天气观测

该预报发布于1小时和7分钟前的00:51 UTC
风速11节,风向,有时为19节阵风
温度 12°C
湿度 50%
气压 1023 hPa
能見度: 16.1公里
天空无云

METAR: KORF 220051Z 35011G19KT 10SM CLR 12/02 A3020 RMK AO2 SLP225 T01170017

时间: 21:58 (01:58 UTC)

预报

该预报发布于2小时和19分钟前的23:39 UTC
预报有效从22日的 00点(UTC)到 22日的 24点(UTC)
风速8节,风向北转西北
能見度: 10公里
天空无云
从 22日的 1600点(UTC)
风速5节,风向西转西北
能見度: 10公里
天空无云
从 22日的 1700点(UTC)
风速5节,风向西转西南
能見度: 10公里
天空无云
从 22日的 1800点(UTC)
风速4节,风向西南
能見度: 10公里
天空无云

TAF: KORF 212339Z 2200/2224 34008KT P6SM SKC FM221600 30005KT P6SM SKC FM221700 25005KT P6SM SKC FM221800 22004KT P6SM SKC

超过4000个机场的气象观测和天气预报(METAR&TAF报告)。

可查询的气象台以黄色和红色小点在地图上表示。

将鼠标移到小点上方,可查看气象台名称。

然后点击查看天气观测和预报。

如需切换地图:点击带黑十字的绿色按钮放大地图;点击带横线的绿色按钮缩小地图;或者点击绿色箭头查看邻近地区的地图。


METAR-TAF: